Airfield :







YOU CAN JOIN US ON...

 
LOGIN :

Register | Disclaimer

   EN    FR    IT 

 









Legend :    VFR   Marginal VFR   IFR   Intensive IFR   Very Intensive IFR
Visi :
Ceiling :
>= 8 km
>= 3000ft
5 to 8 km
1000 to 3000 ft
1500m to 5 km
500 to 1000 ft
800 to 1500m
200 to 500 ft
< 800m
< 200 ft
Symbols :   Thunderstorms  Fog  Heavy snow  Heavy precipitations  Wind > 20 kt






- Airport Elevation : 141 ft
- IATA code : YQI


CYQI - Yarmouth

CURRENT METAR :
  • 311700Z 31013KT 280V340 12SM FEW020 BKN260 17/12 A2983 RMK CU1CI5 CU TR SLP103 DENSITY ALT 500FT

EXPIRED METARs :
  • 311600Z 30011KT 12SM FEW018 SCT250 15/11 A2982 RMK CU1CI4 CU TR SLP100 DENSITY ALT 200FT
  • 311500Z 27008KT 260V320 12SM BKN260 16/13 A2981 RMK CI5 SLP095 DENSITY ALT 400FT

TAF AMD TAF CYQI
Valid from the 31 at 13:00 until the 01 at 00:00 UTC


311346Z 3113/3124 29008KT P6SM SCT008 BKN250
TEMPO 3113/3116 2SM BR BKN008 BKN250
FM311600 30012KT P6SM SCT020
TEMPO 3116/3121 FEW008 BKN020
FM312100 30010KT P6SM FEW040 RMK NXT FCST BY 311800Z
CZQM FIR / North America



MET'MAP, your aeronautical weather chart ! - Copyright ORBIFLY December 2007 - Disclaimer

ORBIFLY MET'MAP TEAM :

Programming & Development : Alexandra Zaïnal
Concept & original design : Baudouin d'Aumeries
Assistance for programming : Marc-Olivier Méhu
Technical & hardware support : Manuel Goepfert

Contact : metmap@orbifly.com




SOURCES & CREDITS :

   NOAA